HEBA/HBE METAR and TAF weather

Enter ICAO airport designator
Station Type Date Time Source
HEBA METAR 2019/12/06 03:00 UTC NOAA

HEBA 060300Z 32010KT 9999 SCT020 SCT022 18/11 Q1020 NOSIG


Station Type Date Time Source
HEBA Decoded METAR 2019/12/06 03:00 UTC NOAA

Alexandria Borg El Arab, Egypt (HEBA) 31-31N 030-10E
Dec 05, 2019 - 10:00 PM EST / 2019.12.06 0300 UTC
Wind: from the NW (320 degrees) at 12 MPH (10 KT):0
Visibility: greater than 7 mile(s):0
Sky conditions: partly cloudy
Temperature: 64 F (18 C)
Dew Point: 51 F (11 C)
Relative Humidity: 63%
Pressure (altimeter): 30.12 in. Hg (1020 hPa)
ob: HEBA 060300Z 32010KT 9999 SCT020 SCT022 18/11 Q1020 NOSIG
cycle: 3

Station Type Date Time Source
HEBA TAF 2019/12/05 18:03 UTC NOAA

TAF HEBA 051700Z 0518/0624 33011KT 9999 SCT020

Example: see airport list